createdAt,value
2022-10-25T00:00:09.947Z,340
2022-10-25T00:01:10.228Z,344
2022-10-25T00:02:09.146Z,350
2022-10-25T00:03:09.640Z,352
2022-10-25T00:04:09.463Z,348
2022-10-25T00:05:09.663Z,347
2022-10-25T00:06:09.304Z,349
2022-10-25T00:07:09.069Z,350
2022-10-25T00:08:09.818Z,354
2022-10-25T00:09:09.670Z,364
2022-10-25T00:10:09.149Z,332
2022-10-25T00:11:10.047Z,355
2022-10-25T00:12:09.155Z,362
2022-10-25T00:13:10.298Z,347
2022-10-25T00:14:09.002Z,356
2022-10-25T00:15:10.144Z,350
2022-10-25T00:17:08.888Z,348
2022-10-25T00:18:09.630Z,351
2022-10-25T00:19:09.255Z,353
2022-10-25T00:20:08.935Z,356
2022-10-25T00:21:09.612Z,363
2022-10-25T00:22:09.596Z,356
2022-10-25T00:23:09.164Z,350
2022-10-25T00:24:10.025Z,345
2022-10-25T00:25:10.050Z,347
2022-10-25T00:26:08.786Z,348
2022-10-25T00:27:09.507Z,339
2022-10-25T00:28:08.956Z,383
2022-10-25T00:29:09.855Z,364
2022-10-25T00:30:10.052Z,355
2022-10-25T00:31:08.694Z,356
2022-10-25T00:32:09.238Z,348
2022-10-25T00:33:08.668Z,343
2022-10-25T00:34:09.432Z,332
2022-10-25T00:35:08.874Z,331
2022-10-25T00:36:09.238Z,340
2022-10-25T00:37:08.786Z,355
2022-10-25T00:38:09.262Z,353
2022-10-25T00:39:08.811Z,346
2022-10-25T00:40:09.094Z,347
2022-10-25T00:41:09.679Z,346
2022-10-25T00:42:09.652Z,359
2022-10-25T00:43:08.815Z,356
2022-10-25T00:44:09.321Z,349
2022-10-25T00:45:08.943Z,344
2022-10-25T00:46:09.454Z,359
2022-10-25T00:47:08.732Z,336
2022-10-25T00:48:09.482Z,345
2022-10-25T00:50:09.366Z,341
2022-10-25T00:51:08.886Z,353
2022-10-25T00:52:09.469Z,360
2022-10-25T00:53:08.854Z,358
2022-10-25T00:54:09.331Z,352
2022-10-25T00:55:08.954Z,351
2022-10-25T00:56:09.549Z,353
2022-10-25T00:57:08.875Z,358
2022-10-25T00:58:09.134Z,353
2022-10-25T00:59:09.452Z,343
2022-10-25T01:00:09.576Z,347
2022-10-25T01:01:08.974Z,360
2022-10-25T01:02:09.025Z,356
2022-10-25T01:03:09.188Z,350
2022-10-25T01:04:08.428Z,343
2022-10-25T01:05:09.261Z,367
2022-10-25T01:06:09.589Z,360
2022-10-25T01:07:08.868Z,359
2022-10-25T01:08:09.350Z,348
2022-10-25T01:09:09.278Z,347
2022-10-25T01:10:08.866Z,361
2022-10-25T01:11:09.555Z,358
2022-10-25T01:12:09.253Z,354
2022-10-25T01:13:09.630Z,356
2022-10-25T01:14:08.836Z,354
2022-10-25T01:15:09.935Z,351
2022-10-25T01:16:14.351Z,361
2022-10-25T01:17:09.027Z,355
2022-10-25T01:18:09.507Z,349
2022-10-25T01:19:08.837Z,345
2022-10-25T01:20:09.443Z,340
2022-10-25T01:21:09.082Z,344
2022-10-25T01:22:09.696Z,341
2022-10-25T01:23:08.112Z,345
2022-10-25T01:24:08.794Z,322
2022-10-25T01:25:09.550Z,341
2022-10-25T01:26:09.243Z,342
2022-10-25T01:27:08.533Z,343
2022-10-25T01:28:09.246Z,353
2022-10-25T01:29:09.825Z,354
2022-10-25T01:30:17.712Z,359
2022-10-25T01:32:08.732Z,348
2022-10-25T01:33:09.034Z,354
2022-10-25T01:34:09.698Z,358
2022-10-25T01:35:09.126Z,354
2022-10-25T01:36:09.942Z,340
2022-10-25T01:37:09.905Z,342
2022-10-25T01:38:09.136Z,350
2022-10-25T01:39:08.790Z,354
2022-10-25T01:40:09.179Z,352
2022-10-25T01:41:08.700Z,348
2022-10-25T01:42:09.486Z,347
2022-10-25T01:43:08.938Z,364
2022-10-25T01:44:09.348Z,359
2022-10-25T01:45:09.057Z,347
2022-10-25T01:46:08.477Z,344
2022-10-25T01:47:09.101Z,334
2022-10-25T01:48:08.493Z,339
2022-10-25T01:49:09.173Z,340
2022-10-25T01:50:09.620Z,350
2022-10-25T01:52:09.363Z,357
2022-10-25T01:53:09.061Z,358
2022-10-25T01:54:09.414Z,361
2022-10-25T01:55:09.183Z,353
2022-10-25T01:56:08.617Z,347
2022-10-25T01:57:08.891Z,348
2022-10-25T01:58:08.986Z,345
2022-10-25T01:59:09.251Z,352
2022-10-25T02:01:08.974Z,374
2022-10-25T02:02:08.828Z,367
2022-10-25T02:03:09.379Z,365
2022-10-25T02:05:09.840Z,356
2022-10-25T02:06:09.644Z,342
2022-10-25T02:07:09.074Z,347
2022-10-25T02:08:09.519Z,348
2022-10-25T02:09:08.964Z,347
2022-10-25T02:10:09.377Z,361
2022-10-25T02:11:08.922Z,363
2022-10-25T02:12:09.360Z,360
2022-10-25T02:13:08.734Z,361
2022-10-25T02:14:09.095Z,353
2022-10-25T02:15:09.734Z,349
2022-10-25T02:16:09.424Z,356
2022-10-25T02:17:08.866Z,360
2022-10-25T02:18:09.381Z,351
2022-10-25T02:19:08.557Z,332
2022-10-25T02:20:09.179Z,390
2022-10-25T02:21:08.733Z,345
2022-10-25T02:22:09.091Z,342
2022-10-25T02:23:09.269Z,348
2022-10-25T02:24:09.615Z,361
2022-10-25T02:25:09.160Z,354
2022-10-25T02:26:09.779Z,349
2022-10-25T02:28:09.329Z,346
2022-10-25T02:29:08.933Z,347
2022-10-25T02:30:09.643Z,357
2022-10-25T02:31:08.934Z,358
2022-10-25T02:32:09.748Z,352
2022-10-25T02:33:09.274Z,350
2022-10-25T02:35:09.037Z,351
2022-10-25T02:37:09.172Z,345
2022-10-25T02:38:09.327Z,357
2022-10-25T02:39:09.537Z,321
2022-10-25T02:40:09.190Z,327
2022-10-25T02:41:09.688Z,339
2022-10-25T02:42:08.936Z,346
2022-10-25T02:43:09.635Z,339
2022-10-25T02:44:09.087Z,345
2022-10-25T02:45:09.633Z,353
2022-10-25T02:46:09.458Z,364
2022-10-25T02:47:08.929Z,359
2022-10-25T02:48:09.361Z,364
2022-10-25T02:49:08.812Z,355
2022-10-25T02:50:09.219Z,349
2022-10-25T02:51:09.630Z,350
2022-10-25T02:52:09.237Z,351
2022-10-25T02:53:09.712Z,359
2022-10-25T02:54:09.210Z,353
2022-10-25T02:55:09.701Z,345
2022-10-25T02:56:08.965Z,331
2022-10-25T02:57:09.210Z,376
2022-10-25T02:58:08.630Z,363
2022-10-25T02:59:09.098Z,359
2022-10-25T03:00:10.226Z,361
2022-10-25T03:01:09.389Z,359
2022-10-25T03:02:09.125Z,356
2022-10-25T03:03:09.563Z,358
2022-10-25T03:04:08.839Z,361
2022-10-25T03:05:09.319Z,367
2022-10-25T03:06:08.936Z,362
2022-10-25T03:07:09.283Z,364
2022-10-25T03:08:08.723Z,355
2022-10-25T03:09:09.315Z,352
2022-10-25T03:10:08.860Z,353
2022-10-25T03:11:09.543Z,351
2022-10-25T03:12:09.484Z,356
2022-10-25T03:14:08.865Z,359
2022-10-25T03:15:09.597Z,344
2022-10-25T03:16:09.236Z,350
2022-10-25T03:17:08.905Z,343
2022-10-25T03:18:09.608Z,353
2022-10-25T03:19:09.308Z,350
2022-10-25T03:20:08.783Z,355
2022-10-25T03:21:09.293Z,353
2022-10-25T03:22:09.106Z,364
2022-10-25T03:23:09.632Z,369
2022-10-25T03:24:09.162Z,360
2022-10-25T03:26:09.163Z,354
2022-10-25T03:27:09.644Z,352
2022-10-25T03:28:09.247Z,357
2022-10-25T03:29:09.012Z,362
2022-10-25T03:30:09.888Z,354
2022-10-25T03:31:09.880Z,344
2022-10-25T03:32:09.851Z,347
2022-10-25T03:33:09.388Z,352
2022-10-25T03:34:08.916Z,351
2022-10-25T03:35:09.357Z,349
2022-10-25T03:36:09.150Z,354
2022-10-25T03:37:09.747Z,357
2022-10-25T03:39:08.923Z,362
2022-10-25T03:41:09.239Z,352
2022-10-25T03:42:08.951Z,348
2022-10-25T03:43:10.042Z,351
2022-10-25T03:44:08.864Z,350
2022-10-25T03:45:09.636Z,356
2022-10-25T03:46:09.307Z,353
2022-10-25T03:48:09.349Z,358
2022-10-25T03:49:09.161Z,353
2022-10-25T03:50:09.797Z,344
2022-10-25T03:51:09.343Z,338
2022-10-25T03:52:08.877Z,343
2022-10-25T03:54:08.868Z,355
2022-10-25T03:55:09.250Z,353
2022-10-25T03:56:08.580Z,362
2022-10-25T03:57:17.757Z,360
2022-10-25T03:58:09.501Z,353
2022-10-25T04:00:10.159Z,350
2022-10-25T04:01:09.312Z,356
2022-10-25T04:02:09.235Z,363
2022-10-25T04:03:09.940Z,367
2022-10-25T04:04:09.440Z,358
2022-10-25T04:05:08.943Z,362
2022-10-25T04:06:09.751Z,357
2022-10-25T04:07:09.272Z,355
2022-10-25T04:08:09.800Z,359
2022-10-25T04:09:09.192Z,355
2022-10-25T04:10:08.581Z,349
2022-10-25T04:11:09.223Z,345
2022-10-25T04:12:08.803Z,350
2022-10-25T04:13:09.215Z,385
2022-10-25T04:14:08.711Z,364
2022-10-25T04:15:09.621Z,372
2022-10-25T04:16:09.452Z,362
2022-10-25T04:17:08.858Z,370
2022-10-25T04:18:09.490Z,367
2022-10-25T04:19:09.062Z,361
2022-10-25T04:21:09.853Z,365
2022-10-25T04:22:09.406Z,361
2022-10-25T04:23:08.923Z,362
2022-10-25T04:24:09.565Z,346
2022-10-25T04:25:09.316Z,348
2022-10-25T04:26:09.057Z,355
2022-10-25T04:27:08.476Z,364
2022-10-25T04:28:09.002Z,365
2022-10-25T04:29:09.989Z,355
2022-10-25T04:30:09.689Z,356
2022-10-25T04:31:09.635Z,360
2022-10-25T04:32:09.773Z,355
2022-10-25T04:33:31.613Z,358
2022-10-25T04:34:09.131Z,357
2022-10-25T04:35:09.090Z,347
2022-10-25T04:36:08.408Z,352
2022-10-25T04:37:09.040Z,357
2022-10-25T04:38:09.520Z,352
2022-10-25T04:39:09.093Z,361
2022-10-25T04:40:08.756Z,360
2022-10-25T04:41:09.355Z,357
2022-10-25T04:43:09.675Z,355
2022-10-25T04:44:09.128Z,357
2022-10-25T04:45:09.079Z,361
2022-10-25T04:46:08.980Z,355
2022-10-25T04:48:09.401Z,361
2022-10-25T04:49:09.087Z,359
2022-10-25T04:50:08.927Z,344
2022-10-25T04:51:08.752Z,370
2022-10-25T04:52:09.417Z,348
2022-10-25T04:53:09.022Z,345
2022-10-25T04:54:08.736Z,349
2022-10-25T04:55:09.727Z,358
2022-10-25T04:56:09.305Z,367
2022-10-25T04:57:09.118Z,365
2022-10-25T04:58:09.037Z,358
2022-10-25T04:59:08.836Z,349
2022-10-25T05:00:10.124Z,358
2022-10-25T05:01:09.061Z,357
2022-10-25T05:02:09.115Z,358
2022-10-25T05:03:13.136Z,347
2022-10-25T05:04:09.228Z,339
2022-10-25T05:05:08.845Z,348
2022-10-25T05:06:09.598Z,352
2022-10-25T05:07:09.452Z,353
2022-10-25T05:08:09.305Z,349
2022-10-25T05:09:09.223Z,358
2022-10-25T05:10:09.992Z,348
2022-10-25T05:11:09.345Z,358
2022-10-25T05:12:09.449Z,357
2022-10-25T05:13:08.924Z,353
2022-10-25T05:14:09.741Z,355
2022-10-25T05:15:09.764Z,346
2022-10-25T05:16:09.935Z,359
2022-10-25T05:17:09.920Z,360
2022-10-25T05:18:09.678Z,342
2022-10-25T05:19:09.795Z,351
2022-10-25T05:20:09.806Z,355
2022-10-25T05:21:09.586Z,350
2022-10-25T05:22:09.218Z,352
2022-10-25T05:23:09.824Z,344
2022-10-25T05:25:09.284Z,351
2022-10-25T05:26:09.175Z,356
2022-10-25T05:27:09.968Z,354
2022-10-25T05:28:09.422Z,337
2022-10-25T05:29:10.366Z,383
2022-10-25T05:30:09.562Z,382
2022-10-25T05:32:09.238Z,366
2022-10-25T05:33:08.820Z,363
2022-10-25T05:35:09.702Z,355
2022-10-25T05:36:09.805Z,352
2022-10-25T05:37:09.278Z,366
2022-10-25T05:38:09.040Z,362
2022-10-25T05:40:09.600Z,370
2022-10-25T05:41:09.501Z,368
2022-10-25T05:42:09.193Z,364
2022-10-25T05:43:09.747Z,369
2022-10-25T05:44:09.507Z,365
2022-10-25T05:45:09.741Z,366
2022-10-25T05:46:09.579Z,352
2022-10-25T05:47:08.795Z,370
2022-10-25T05:48:09.833Z,357
2022-10-25T05:50:10.060Z,363
2022-10-25T05:51:21.253Z,365
2022-10-25T05:52:09.112Z,359
2022-10-25T05:53:09.947Z,368
2022-10-25T05:54:09.513Z,365
2022-10-25T05:55:09.011Z,366
2022-10-25T05:56:08.876Z,362
2022-10-25T05:57:09.518Z,363
2022-10-25T05:58:09.199Z,359
2022-10-25T05:59:08.850Z,352
2022-10-25T06:00:10.299Z,358
2022-10-25T06:01:10.114Z,363
2022-10-25T06:02:09.391Z,362
2022-10-25T06:03:09.897Z,365
2022-10-25T06:04:09.257Z,372
2022-10-25T06:05:09.740Z,369
2022-10-25T06:06:09.348Z,367
2022-10-25T06:07:09.319Z,364
2022-10-25T06:08:14.318Z,370
2022-10-25T06:09:09.370Z,372
2022-10-25T06:10:10.761Z,370
2022-10-25T06:11:10.162Z,372
2022-10-25T06:12:09.801Z,367
2022-10-25T06:13:09.934Z,366
2022-10-25T06:14:09.590Z,365
2022-10-25T06:15:09.407Z,368
2022-10-25T06:16:09.348Z,361
2022-10-25T06:17:09.786Z,358
2022-10-25T06:19:09.374Z,372
2022-10-25T06:20:09.186Z,366
2022-10-25T06:21:09.038Z,367
2022-10-25T06:22:09.684Z,373
2022-10-25T06:23:11.116Z,378
2022-10-25T06:24:09.028Z,361
2022-10-25T06:25:09.006Z,421
2022-10-25T06:26:09.627Z,377
2022-10-25T06:27:09.351Z,370
2022-10-25T06:28:08.771Z,376
2022-10-25T06:29:09.197Z,383
2022-10-25T06:30:10.259Z,385
2022-10-25T06:31:09.123Z,378
2022-10-25T06:32:09.564Z,374
2022-10-25T06:33:09.340Z,385
2022-10-25T06:34:08.793Z,393
2022-10-25T06:35:09.360Z,387
2022-10-25T06:36:09.048Z,377
2022-10-25T06:37:09.797Z,379
2022-10-25T06:38:09.515Z,384
2022-10-25T06:39:08.889Z,393
2022-10-25T06:40:09.548Z,391
2022-10-25T06:41:09.110Z,381
2022-10-25T06:42:09.722Z,373
2022-10-25T06:44:09.089Z,399
2022-10-25T06:45:09.920Z,394
2022-10-25T06:46:09.702Z,385
2022-10-25T06:47:17.342Z,387
2022-10-25T06:48:09.332Z,391
2022-10-25T06:49:09.002Z,388
2022-10-25T06:50:09.444Z,384
2022-10-25T06:51:09.059Z,379
2022-10-25T06:52:09.829Z,382
2022-10-25T06:53:09.159Z,385
2022-10-25T06:55:09.809Z,377
2022-10-25T06:56:13.295Z,381
2022-10-25T06:57:08.956Z,377
2022-10-25T06:58:09.480Z,379
2022-10-25T06:59:09.304Z,381
2022-10-25T07:00:09.723Z,362
2022-10-25T07:01:08.675Z,370
2022-10-25T07:03:09.416Z,385
2022-10-25T07:04:09.117Z,348
2022-10-25T07:05:08.758Z,357
2022-10-25T07:06:09.500Z,369
2022-10-25T07:07:09.173Z,375
2022-10-25T07:08:08.827Z,372
2022-10-25T07:09:09.471Z,368
2022-10-25T07:10:08.924Z,370
2022-10-25T07:11:09.816Z,369
2022-10-25T07:12:12.591Z,368
2022-10-25T07:13:09.607Z,358
2022-10-25T07:14:09.289Z,349
2022-10-25T07:15:09.504Z,361
2022-10-25T07:16:09.343Z,363
2022-10-25T07:17:09.439Z,357
2022-10-25T07:18:08.840Z,353
2022-10-25T07:19:09.774Z,355
2022-10-25T07:20:09.172Z,358
2022-10-25T07:21:08.656Z,368
2022-10-25T07:22:09.113Z,370
2022-10-25T07:23:09.922Z,350
2022-10-25T07:24:09.845Z,347
2022-10-25T07:26:09.472Z,350
2022-10-25T07:27:09.175Z,353
2022-10-25T07:28:09.909Z,356
2022-10-25T07:29:09.145Z,344
2022-10-25T07:30:09.729Z,355
2022-10-25T07:32:09.123Z,362
2022-10-25T07:33:08.790Z,359
2022-10-25T07:34:09.839Z,355
2022-10-25T07:35:09.370Z,351
2022-10-25T07:36:10.837Z,356
2022-10-25T07:37:09.027Z,359
2022-10-25T07:38:09.819Z,353
2022-10-25T07:39:09.093Z,349
2022-10-25T07:40:09.923Z,368
2022-10-25T07:41:09.613Z,326
2022-10-25T07:42:09.284Z,334
2022-10-25T07:43:09.036Z,336
2022-10-25T07:44:15.471Z,341
2022-10-25T07:45:09.702Z,338
2022-10-25T07:46:09.421Z,339
2022-10-25T07:48:09.444Z,334
2022-10-25T07:49:09.047Z,336
2022-10-25T07:50:09.770Z,339
2022-10-25T07:51:09.223Z,342
2022-10-25T07:52:08.540Z,346
2022-10-25T07:53:09.160Z,344
2022-10-25T07:54:09.506Z,353
2022-10-25T07:55:08.891Z,357
2022-10-25T07:56:09.628Z,345
2022-10-25T07:57:09.221Z,344
2022-10-25T07:58:08.549Z,342
2022-10-25T07:59:08.992Z,343
2022-10-25T08:00:10.174Z,352
2022-10-25T08:01:09.321Z,349
2022-10-25T08:02:08.865Z,346
2022-10-25T08:03:09.386Z,351
2022-10-25T08:04:09.271Z,358
2022-10-25T08:05:08.960Z,364
2022-10-25T08:07:09.242Z,359
2022-10-25T08:08:08.756Z,354
2022-10-25T08:09:14.638Z,341
2022-10-25T08:10:08.865Z,335
2022-10-25T08:11:08.649Z,337
2022-10-25T08:12:09.844Z,342
2022-10-25T08:13:08.920Z,353
2022-10-25T08:14:09.721Z,354
2022-10-25T08:15:09.508Z,349
2022-10-25T08:16:09.141Z,346
2022-10-25T08:17:08.573Z,358
2022-10-25T08:18:09.053Z,322
2022-10-25T08:19:09.816Z,333
2022-10-25T08:20:09.070Z,338
2022-10-25T08:21:08.705Z,351
2022-10-25T08:22:09.433Z,354
2022-10-25T08:23:09.266Z,343
2022-10-25T08:24:09.114Z,347
2022-10-25T08:25:09.060Z,350
2022-10-25T08:26:08.997Z,345
2022-10-25T08:27:09.739Z,339
2022-10-25T08:28:09.352Z,343
2022-10-25T08:29:09.053Z,349
2022-10-25T08:30:10.324Z,344
2022-10-25T08:31:09.185Z,345
2022-10-25T08:32:08.525Z,337
2022-10-25T08:33:11.625Z,339
2022-10-25T08:35:09.524Z,348
2022-10-25T08:36:09.358Z,353
2022-10-25T08:37:08.861Z,355
2022-10-25T08:38:09.760Z,347
2022-10-25T08:40:09.465Z,349
2022-10-25T08:41:09.090Z,350
2022-10-25T08:42:09.793Z,347
2022-10-25T08:43:09.625Z,344
2022-10-25T08:44:09.276Z,337
2022-10-25T08:45:09.088Z,342
2022-10-25T08:46:08.824Z,347
2022-10-25T08:47:09.467Z,337
2022-10-25T08:49:16.823Z,334
2022-10-25T08:50:10.005Z,330
2022-10-25T08:51:09.869Z,328
2022-10-25T08:52:11.229Z,330
2022-10-25T08:53:08.762Z,342
2022-10-25T08:54:09.332Z,336
2022-10-25T08:56:16.898Z,330
2022-10-25T08:57:15.706Z,334
2022-10-25T08:58:09.347Z,345
2022-10-25T08:59:09.213Z,343
2022-10-25T09:00:09.625Z,335
2022-10-25T09:01:08.767Z,339
2022-10-25T09:03:13.399Z,338
2022-10-25T09:04:09.045Z,343
2022-10-25T09:05:09.899Z,337
2022-10-25T09:06:09.852Z,328
2022-10-25T09:07:09.880Z,324
2022-10-25T09:08:08.955Z,333
2022-10-25T09:09:09.967Z,342
2022-10-25T09:10:09.946Z,346
2022-10-25T09:11:09.919Z,338
2022-10-25T09:12:09.427Z,343
2022-10-25T09:13:10.882Z,349
2022-10-25T09:14:09.843Z,336
2022-10-25T09:15:09.569Z,326
2022-10-25T09:16:09.112Z,327
2022-10-25T09:17:09.934Z,330
2022-10-25T09:18:09.762Z,340
2022-10-25T09:19:09.567Z,332
2022-10-25T09:20:09.183Z,317
2022-10-25T09:21:13.499Z,321
2022-10-25T09:22:09.308Z,333
2022-10-25T09:23:09.112Z,340
2022-10-25T09:24:08.998Z,331
2022-10-25T09:26:09.677Z,330
2022-10-25T09:27:09.277Z,340
2022-10-25T09:28:08.765Z,322
2022-10-25T09:29:09.694Z,335
2022-10-25T09:30:09.783Z,339
2022-10-25T09:31:09.350Z,331
2022-10-25T09:32:08.905Z,332
2022-10-25T09:33:09.704Z,339
2022-10-25T09:34:09.558Z,333
2022-10-25T09:35:09.219Z,336
2022-10-25T09:36:08.905Z,338
2022-10-25T09:37:09.549Z,335
2022-10-25T09:38:09.360Z,332
2022-10-25T09:39:11.259Z,327
2022-10-25T09:40:09.274Z,325
2022-10-25T09:41:08.961Z,323
2022-10-25T09:42:09.595Z,326
2022-10-25T09:43:09.007Z,336
2022-10-25T09:44:09.517Z,348
2022-10-25T09:45:09.290Z,339
2022-10-25T09:46:09.590Z,327
2022-10-25T09:47:09.177Z,338
2022-10-25T09:48:08.955Z,342
2022-10-25T09:49:10.099Z,340
2022-10-25T09:50:09.930Z,338
2022-10-25T09:51:09.743Z,348
2022-10-25T09:52:11.093Z,339
2022-10-25T09:53:08.749Z,330
2022-10-25T09:55:09.580Z,335
2022-10-25T09:56:09.313Z,338
2022-10-25T09:57:09.197Z,327
2022-10-25T09:58:08.771Z,324
2022-10-25T09:59:09.391Z,325
2022-10-25T10:00:09.912Z,328
2022-10-25T10:01:09.132Z,334
2022-10-25T10:02:08.918Z,332
2022-10-25T10:04:09.889Z,338
2022-10-25T10:05:09.563Z,337
2022-10-25T10:06:09.481Z,339
2022-10-25T10:07:08.947Z,335
2022-10-25T10:08:09.297Z,334
2022-10-25T10:09:09.189Z,333
2022-10-25T10:10:09.064Z,335
2022-10-25T10:11:08.825Z,338
2022-10-25T10:12:10.186Z,335
2022-10-25T10:13:08.835Z,338
2022-10-25T10:14:10.196Z,341
2022-10-25T10:15:09.074Z,332
2022-10-25T10:16:08.746Z,334
2022-10-25T10:18:09.471Z,332
2022-10-25T10:19:09.362Z,324
2022-10-25T10:20:09.231Z,333
2022-10-25T10:21:09.166Z,332
2022-10-25T10:22:08.772Z,329
2022-10-25T10:23:09.647Z,326
2022-10-25T10:24:09.501Z,339
2022-10-25T10:25:08.792Z,341
2022-10-25T10:26:08.728Z,331
2022-10-25T10:27:09.653Z,335
2022-10-25T10:28:09.740Z,328
2022-10-25T10:29:10.085Z,334
2022-10-25T10:30:09.008Z,326
2022-10-25T10:31:08.874Z,331
2022-10-25T10:32:08.634Z,336
2022-10-25T10:33:09.301Z,347
2022-10-25T10:34:08.922Z,349
2022-10-25T10:35:09.656Z,344
2022-10-25T10:36:09.829Z,354
2022-10-25T10:37:09.914Z,325
2022-10-25T10:38:09.573Z,321
2022-10-25T10:39:09.305Z,318
2022-10-25T10:40:09.307Z,324
2022-10-25T10:41:09.227Z,327
2022-10-25T10:42:12.831Z,326
2022-10-25T10:43:09.292Z,334
2022-10-25T10:44:08.867Z,343
2022-10-25T10:45:09.990Z,331
2022-10-25T10:46:08.735Z,330
2022-10-25T10:47:09.394Z,335
2022-10-25T10:48:09.101Z,337
2022-10-25T10:49:08.693Z,334
2022-10-25T10:51:25.251Z,336
2022-10-25T10:52:09.176Z,338
2022-10-25T10:53:08.836Z,344
2022-10-25T10:54:09.822Z,325
2022-10-25T10:55:09.431Z,335
2022-10-25T10:56:09.242Z,331
2022-10-25T10:59:09.706Z,330
2022-10-25T11:00:15.473Z,335
2022-10-25T11:01:10.202Z,343
2022-10-25T11:02:14.230Z,346
2022-10-25T11:03:09.328Z,335
2022-10-25T11:04:09.429Z,319
2022-10-25T11:05:09.248Z,320
2022-10-25T11:06:09.052Z,324
2022-10-25T11:07:08.821Z,328
2022-10-25T11:08:08.684Z,334
2022-10-25T11:09:09.899Z,344
2022-10-25T11:10:08.765Z,319
2022-10-25T11:11:09.677Z,329
2022-10-25T11:12:09.559Z,334
2022-10-25T11:13:09.571Z,333
2022-10-25T11:14:10.022Z,323
2022-10-25T11:15:08.781Z,331
2022-10-25T11:16:10.121Z,320
2022-10-25T11:17:08.701Z,328
2022-10-25T11:18:09.425Z,338
2022-10-25T11:19:08.997Z,347
2022-10-25T11:20:08.898Z,343
2022-10-25T11:21:08.586Z,335
2022-10-25T11:22:09.228Z,348
2022-10-25T11:23:08.885Z,353
2022-10-25T11:24:10.023Z,349
2022-10-25T11:25:08.846Z,342
2022-10-25T11:27:09.663Z,336
2022-10-25T11:28:09.556Z,337
2022-10-25T11:29:11.074Z,342
2022-10-25T11:30:09.304Z,335
2022-10-25T11:31:09.151Z,333
2022-10-25T11:32:09.109Z,332
2022-10-25T11:33:08.696Z,333
2022-10-25T11:34:09.880Z,338
2022-10-25T11:35:09.707Z,333
2022-10-25T11:36:09.289Z,340
2022-10-25T11:37:08.542Z,354
2022-10-25T11:38:09.441Z,340
2022-10-25T11:39:09.283Z,344
2022-10-25T11:40:09.259Z,339
2022-10-25T11:41:08.908Z,330
2022-10-25T11:42:09.426Z,329
2022-10-25T11:43:08.721Z,304
2022-10-25T11:44:09.241Z,372
2022-10-25T11:45:08.965Z,349
2022-10-25T11:46:08.765Z,334
2022-10-25T11:47:09.693Z,328
2022-10-25T11:48:09.411Z,325
2022-10-25T11:49:09.111Z,326
2022-10-25T11:50:09.647Z,327
2022-10-25T11:52:09.638Z,332
2022-10-25T11:53:09.410Z,335
2022-10-25T11:55:09.216Z,339
2022-10-25T11:56:08.906Z,334
2022-10-25T11:57:09.536Z,343
2022-10-25T11:58:09.155Z,342
2022-10-25T11:59:08.596Z,344
2022-10-25T12:00:10.054Z,350
2022-10-25T12:01:09.172Z,342
2022-10-25T12:02:09.100Z,338
2022-10-25T12:03:09.178Z,329
2022-10-25T12:04:09.325Z,332
2022-10-25T12:05:09.052Z,336
2022-10-25T12:06:09.098Z,340
2022-10-25T12:07:08.707Z,335
2022-10-25T12:08:09.262Z,326
2022-10-25T12:09:08.789Z,315
2022-10-25T12:10:09.680Z,316
2022-10-25T12:11:10.391Z,320
2022-10-25T12:12:08.743Z,329
2022-10-25T12:13:09.657Z,340
2022-10-25T12:14:09.372Z,329
2022-10-25T12:15:09.141Z,325
2022-10-25T12:16:08.851Z,346
2022-10-25T12:17:09.475Z,313
2022-10-25T12:18:09.052Z,319
2022-10-25T12:19:09.449Z,335
2022-10-25T12:20:09.122Z,343
2022-10-25T12:21:08.726Z,349
2022-10-25T12:22:09.330Z,333
2022-10-25T12:23:08.853Z,330
2022-10-25T12:24:09.417Z,327
2022-10-25T12:25:09.072Z,325
2022-10-25T12:26:09.589Z,323
2022-10-25T12:27:09.092Z,325
2022-10-25T12:28:09.904Z,324
2022-10-25T12:29:09.738Z,326
2022-10-25T12:31:09.264Z,344
2022-10-25T12:32:09.375Z,312
2022-10-25T12:33:09.317Z,384
2022-10-25T12:34:09.254Z,321
2022-10-25T12:35:09.117Z,325
2022-10-25T12:36:09.115Z,332
2022-10-25T12:38:08.894Z,333
2022-10-25T12:39:08.878Z,334
2022-10-25T12:40:09.966Z,335
2022-10-25T12:41:08.956Z,333
2022-10-25T12:42:09.781Z,330
2022-10-25T12:43:09.150Z,337
2022-10-25T12:44:09.882Z,335
2022-10-25T12:45:09.541Z,328
2022-10-25T12:46:09.211Z,333
2022-10-25T12:47:08.838Z,340
2022-10-25T12:48:09.636Z,344
2022-10-25T12:49:10.200Z,352
2022-10-25T12:50:08.948Z,333
2022-10-25T12:51:08.741Z,334
2022-10-25T12:52:09.392Z,332
2022-10-25T12:53:08.838Z,323
2022-10-25T12:54:09.478Z,335
2022-10-25T12:55:09.098Z,344
2022-10-25T12:56:08.801Z,335
2022-10-25T12:57:09.485Z,338
2022-10-25T12:59:09.343Z,340
2022-10-25T13:00:09.173Z,350
2022-10-25T13:01:09.133Z,345
2022-10-25T13:02:08.742Z,342
2022-10-25T13:03:10.189Z,343
2022-10-25T13:04:09.476Z,340
2022-10-25T13:05:09.016Z,339
2022-10-25T13:06:08.824Z,336
2022-10-25T13:07:09.348Z,347
2022-10-25T13:08:09.223Z,355
2022-10-25T13:09:08.839Z,353
2022-10-25T13:10:09.663Z,347
2022-10-25T13:11:09.295Z,341
2022-10-25T13:12:08.851Z,340
2022-10-25T13:13:09.580Z,344
2022-10-25T13:14:09.305Z,351
2022-10-25T13:15:09.187Z,347
2022-10-25T13:16:08.728Z,343
2022-10-25T13:17:09.454Z,336
2022-10-25T13:18:09.240Z,334
2022-10-25T13:19:08.818Z,337
2022-10-25T13:20:09.788Z,338
2022-10-25T13:21:09.419Z,342
2022-10-25T13:22:08.874Z,322
2022-10-25T13:23:09.402Z,336
2022-10-25T13:24:09.080Z,344
2022-10-25T13:25:08.787Z,348
2022-10-25T13:26:08.686Z,346
2022-10-25T13:27:09.398Z,345
2022-10-25T13:28:09.269Z,342
2022-10-25T13:29:13.867Z,332
2022-10-25T13:30:09.851Z,327
2022-10-25T13:31:09.717Z,328
2022-10-25T13:32:11.813Z,325
2022-10-25T13:33:09.343Z,336
2022-10-25T13:34:09.260Z,351
2022-10-25T13:35:08.959Z,340
2022-10-25T13:36:08.841Z,341
2022-10-25T13:37:09.494Z,314
2022-10-25T13:38:09.417Z,375
2022-10-25T13:39:09.372Z,360
2022-10-25T13:40:08.973Z,339
2022-10-25T13:41:09.781Z,335
2022-10-25T13:42:09.435Z,337
2022-10-25T13:43:09.149Z,330
2022-10-25T13:44:08.585Z,329
2022-10-25T13:45:23.472Z,335
2022-10-25T13:46:09.261Z,343
2022-10-25T13:47:22.740Z,341
2022-10-25T13:48:09.170Z,326
2022-10-25T13:49:08.711Z,334
2022-10-25T13:50:09.546Z,339
2022-10-25T13:51:22.901Z,346
2022-10-25T13:52:09.318Z,340
2022-10-25T13:53:08.535Z,335
2022-10-25T13:54:11.838Z,345
2022-10-25T13:55:10.060Z,333
2022-10-25T13:56:08.799Z,330
2022-10-25T13:57:09.529Z,331
2022-10-25T13:58:09.223Z,342
2022-10-25T14:00:10.309Z,332
2022-10-25T14:01:08.814Z,338
2022-10-25T14:02:09.171Z,336
2022-10-25T14:03:09.082Z,329
2022-10-25T14:04:08.762Z,328
2022-10-25T14:05:09.896Z,331
2022-10-25T14:06:08.871Z,337
2022-10-25T14:07:08.933Z,341
2022-10-25T14:08:09.618Z,344
2022-10-25T14:09:09.096Z,355
2022-10-25T14:10:10.045Z,315
2022-10-25T14:11:08.816Z,329
2022-10-25T14:12:11.874Z,347
2022-10-25T14:13:09.136Z,346
2022-10-25T14:14:09.131Z,347
2022-10-25T14:15:09.570Z,353
2022-10-25T14:18:08.935Z,341
2022-10-25T14:19:09.519Z,340
2022-10-25T14:20:09.376Z,337
2022-10-25T14:21:09.387Z,340
2022-10-25T14:22:09.291Z,331
2022-10-25T14:23:08.769Z,335
2022-10-25T14:24:09.679Z,329
2022-10-25T14:25:09.402Z,334
2022-10-25T14:26:09.033Z,325
2022-10-25T14:27:09.742Z,322
2022-10-25T14:28:09.224Z,324
2022-10-25T14:29:08.736Z,332
2022-10-25T14:30:09.531Z,333
2022-10-25T14:31:09.106Z,332
2022-10-25T14:32:08.780Z,335
2022-10-25T14:33:08.908Z,337
2022-10-25T14:34:09.981Z,348
2022-10-25T14:35:09.532Z,350
2022-10-25T14:36:09.131Z,340
2022-10-25T14:37:08.569Z,332
2022-10-25T14:38:09.290Z,322
2022-10-25T14:39:08.580Z,328